Time;durP1;ratioP1;P1;durP2;ratioP2;P2;SDS_P1;SDS_P2;PMS_P1;PMS_P2;Temp;Humidity;BMP_temperature;BMP_pressure;BME280_temperature;BME280_humidity;BME280_pressure;Samples;Min_cycle;Max_cycle;Signal;HPM_P1;HPM_P2
2022/07/31 00:00:09;;;;;;;3.38;1.05;;;21.80;99.90;;;;;;4216973;28;20166;-91
2022/07/31 00:02:13;;;;;;;4.00;1.23;;;21.70;99.90;;;;;;4217278;28;20275;-91
2022/07/31 00:04:13;;;;;;;4.32;1.30;;;21.60;99.90;;;;;;4200788;28;20174;-92
2022/07/31 00:06:14;;;;;;;1.73;1.20;;;21.50;99.90;;;;;;4218296;28;20174;-92
2022/07/31 00:08:15;;;;;;;3.22;1.05;;;21.50;99.90;;;;;;4201004;28;20167;-91
2022/07/31 00:10:16;;;;;;;4.65;1.20;;;21.40;99.90;;;;;;4219025;28;20163;-91
2022/07/31 00:12:16;;;;;;;3.60;1.20;;;21.40;99.90;;;;;;4202289;28;20289;-96
2022/07/31 00:14:17;;;;;;;1.90;1.30;;;21.30;99.90;;;;;;4217897;28;20332;-91
2022/07/31 00:16:18;;;;;;;3.33;1.30;;;21.30;99.90;;;;;;4200289;28;20671;-91
2022/07/31 00:18:18;;;;;;;4.82;1.10;;;21.30;99.90;;;;;;4201881;28;20587;-91
2022/07/31 00:20:19;;;;;;;1.98;1.10;;;21.20;99.90;;;;;;4201262;28;20185;-92
2022/07/31 00:22:20;;;;;;;3.92;1.15;;;21.30;99.90;;;;;;4217866;28;20598;-91
2022/07/31 00:24:21;;;;;;;2.97;1.15;;;21.20;99.90;;;;;;4201837;28;20285;-91
2022/07/31 00:26:22;;;;;;;2.10;1.20;;;21.10;99.90;;;;;;4201500;28;20163;-91
2022/07/31 00:28:22;;;;;;;5.03;1.15;;;21.00;99.90;;;;;;4217790;28;20177;-91
2022/07/31 00:30:24;;;;;;;2.03;1.15;;;21.10;99.90;;;;;;4203543;28;20238;-92
2022/07/31 00:32:25;;;;;;;3.03;1.25;;;21.00;99.90;;;;;;4217622;28;20194;-91
2022/07/31 00:34:25;;;;;;;3.42;1.15;;;21.00;99.90;;;;;;4218418;28;20190;-91
2022/07/31 00:36:26;;;;;;;3.05;1.27;;;21.00;99.90;;;;;;4219833;28;20546;-91
2022/07/31 00:38:27;;;;;;;3.40;1.05;;;20.90;99.90;;;;;;4221206;28;20189;-93
2022/07/31 00:40:27;;;;;;;3.70;1.15;;;20.90;99.90;;;;;;4200532;28;20167;-92
2022/07/31 00:42:28;;;;;;;3.20;1.08;;;20.80;99.90;;;;;;4201975;28;20257;-92
2022/07/31 00:44:29;;;;;;;1.92;1.00;;;20.70;99.90;;;;;;4201167;28;20260;-91
2022/07/31 00:46:29;;;;;;;3.22;1.17;;;20.70;99.90;;;;;;4218986;28;20179;-91
2022/07/31 00:48:30;;;;;;;1.83;1.10;;;20.70;99.90;;;;;;4201822;28;20197;-91
2022/07/31 00:50:31;;;;;;;4.95;1.20;;;20.70;99.90;;;;;;4218892;28;20170;-91
2022/07/31 00:52:32;;;;;;;2.35;0.93;;;20.60;99.90;;;;;;4200763;28;20187;-92
2022/07/31 00:54:34;;;;;;;1.63;1.00;;;20.70;99.90;;;;;;4218694;28;20269;-92
2022/07/31 00:56:35;;;;;;;3.22;1.00;;;20.70;99.90;;;;;;4201166;28;20701;-91
2022/07/31 00:58:36;;;;;;;1.83;0.98;;;20.70;99.90;;;;;;4200687;28;20320;-91
2022/07/31 01:00:37;;;;;;;1.23;0.93;;;20.80;99.90;;;;;;4200502;28;20167;-92
2022/07/31 01:02:38;;;;;;;4.18;1.20;;;20.70;99.90;;;;;;4199700;28;20191;-92
2022/07/31 01:04:39;;;;;;;4.10;1.00;;;20.60;99.90;;;;;;4216949;28;20167;-96
2022/07/31 01:06:40;;;;;;;2.83;1.23;;;20.60;99.90;;;;;;4216769;28;20265;-91
2022/07/31 01:08:40;;;;;;;4.50;0.98;;;20.50;99.90;;;;;;4217885;28;20218;-91
2022/07/31 01:11:00;;;;;;;2.53;1.17;;;20.40;99.90;;;;;;4218121;28;20644;-92
2022/07/31 01:13:13;;;;;;;1.85;1.10;;;20.30;99.90;;;;;;4202829;28;20229;-95
2022/07/31 01:15:15;;;;;;;2.05;0.98;;;20.20;99.90;;;;;;4307366;22;20686;-85
2022/07/31 01:17:18;;;;;;;2.90;1.00;;;20.20;99.90;;;;;;4227164;28;20289;-85
2022/07/31 01:19:45;;;;;;;3.03;1.20;;;20.20;99.90;;;;;;4225648;28;20634;-84
2022/07/31 01:22:01;;;;;;;6.20;1.00;;;20.20;99.90;;;;;;4226454;28;20662;-85
2022/07/31 01:24:49;;;;;;;3.65;1.40;;;20.10;99.90;;;;;;4209522;28;20230;-85
2022/07/31 01:27:26;;;;;;;4.75;1.38;;;20.00;99.90;;;;;;4208402;28;20198;-85
2022/07/31 01:29:57;;;;;;;2.58;1.13;;;19.90;99.90;;;;;;4230012;28;20222;-85
2022/07/31 01:32:06;;;;;;;4.70;1.20;;;19.90;99.90;;;;;;4225824;28;20245;-85
2022/07/31 01:34:32;;;;;;;2.85;1.38;;;19.80;99.90;;;;;;4209600;28;20189;-85
2022/07/31 01:36:41;;;;;;;2.53;1.08;;;19.90;99.90;;;;;;4211283;28;20667;-85
2022/07/31 01:39:00;;;;;;;2.63;1.50;;;19.90;99.90;;;;;;4213854;28;20198;-86
2022/07/31 01:41:13;;;;;;;4.03;1.50;;;19.80;99.90;;;;;;4228685;28;20170;-85
2022/07/31 01:43:21;;;;;;;5.90;1.67;;;19.70;99.90;;;;;;4227448;28;20186;-84
2022/07/31 01:45:24;;;;;;;2.38;1.55;;;19.70;99.90;;;;;;4227849;28;20673;-85
2022/07/31 01:47:26;;;;;;;4.10;1.38;;;19.70;99.90;;;;;;4226213;28;20174;-86
2022/07/31 01:49:28;;;;;;;3.97;1.70;;;19.70;99.90;;;;;;4225286;28;20158;-84
2022/07/31 01:51:30;;;;;;;4.38;1.60;;;19.70;99.90;;;;;;4212210;28;20183;-84
2022/07/31 01:53:32;;;;;;;2.13;1.33;;;19.70;99.90;;;;;;4226718;28;20218;-85
2022/07/31 01:55:33;;;;;;;3.42;1.50;;;19.60;99.90;;;;;;4226256;28;20638;-85
2022/07/31 01:57:44;;;;;;;4.18;1.50;;;19.60;99.90;;;;;;4227564;28;20654;-85
2022/07/31 01:59:47;;;;;;;3.22;1.67;;;19.60;99.90;;;;;;4226714;28;20216;-85
2022/07/31 02:01:56;;;;;;;6.45;1.63;;;19.70;99.90;;;;;;4224092;28;20177;-85
2022/07/31 02:04:01;;;;;;;2.88;1.70;;;19.60;99.90;;;;;;4223233;28;20154;-85
2022/07/31 02:06:04;;;;;;;3.50;1.90;;;19.70;99.90;;;;;;4228964;28;20170;-85
2022/07/31 02:08:06;;;;;;;3.83;1.60;;;19.70;99.90;;;;;;4225969;28;20231;-85
2022/07/31 02:10:14;;;;;;;2.38;1.25;;;19.70;99.90;;;;;;4225392;28;20182;-85
2022/07/31 02:12:18;;;;;;;3.55;1.63;;;19.50;99.90;;;;;;4223241;28;20182;-84
2022/07/31 02:14:20;;;;;;;5.10;1.65;;;19.50;99.90;;;;;;4226955;28;20322;-85
2022/07/31 02:16:22;;;;;;;3.08;1.58;;;19.60;99.90;;;;;;4228173;28;20285;-85
2022/07/31 02:18:28;;;;;;;4.70;1.55;;;19.60;99.90;;;;;;4210073;28;20249;-85
2022/07/31 02:20:49;;;;;;;3.15;1.40;;;19.60;99.90;;;;;;4228735;28;20182;-86
2022/07/31 02:22:50;;;;;;;2.97;1.60;;;19.50;99.90;;;;;;4224916;28;20194;-85
2022/07/31 02:24:51;;;;;;;3.70;1.40;;;19.40;99.90;;;;;;4226002;28;20176;-89
2022/07/31 02:26:53;;;;;;;3.97;1.50;;;19.60;99.90;;;;;;4205872;28;20147;-85
2022/07/31 02:28:55;;;;;;;3.00;1.25;;;19.40;99.90;;;;;;4223012;28;20200;-85
2022/07/31 02:31:01;;;;;;;1.85;1.25;;;19.30;99.90;;;;;;4210208;28;20170;-86
2022/07/31 02:33:05;;;;;;;2.55;1.40;;;19.50;99.90;;;;;;4224690;28;20201;-85
2022/07/31 02:35:18;;;;;;;1.83;1.20;;;19.40;99.90;;;;;;4227575;28;20200;-85
2022/07/31 02:37:22;;;;;;;2.42;1.30;;;19.40;99.90;;;;;;4209769;28;20210;-85
2022/07/31 02:39:40;;;;;;;3.05;1.38;;;19.30;99.90;;;;;;4205606;28;20205;-85
2022/07/31 02:41:41;;;;;;;1.90;1.20;;;19.30;99.90;;;;;;4209842;28;20598;-85
2022/07/31 02:43:44;;;;;;;2.05;1.20;;;19.20;99.90;;;;;;4207582;28;20257;-85
2022/07/31 02:46:05;;;;;;;5.75;1.35;;;19.30;99.90;;;;;;4224694;28;20189;-85
2022/07/31 02:48:10;;;;;;;4.80;1.17;;;19.30;99.90;;;;;;4224403;28;20182;-85
2022/07/31 02:50:16;;;;;;;3.42;1.33;;;19.20;99.90;;;;;;4229508;28;20170;-86
2022/07/31 02:52:17;;;;;;;2.22;1.20;;;19.20;99.90;;;;;;4226060;28;20202;-85
2022/07/31 02:54:18;;;;;;;3.75;1.30;;;19.20;99.90;;;;;;4205986;28;20666;-85
2022/07/31 02:56:40;;;;;;;2.83;1.30;;;19.20;99.90;;;;;;4210104;28;20189;-85
2022/07/31 02:58:48;;;;;;;2.88;1.42;;;19.30;99.90;;;;;;4224321;28;20233;-85
2022/07/31 03:01:00;;;;;;;3.35;1.23;;;19.40;99.90;;;;;;4224138;28;20194;-85
2022/07/31 03:03:01;;;;;;;4.50;1.23;;;19.40;99.90;;;;;;4225101;28;20289;-84
2022/07/31 03:05:02;;;;;;;2.42;1.23;;;19.50;99.90;;;;;;4208017;28;20245;-86
2022/07/31 03:07:04;;;;;;;3.78;1.15;;;19.50;99.90;;;;;;4224237;28;20244;-85
2022/07/31 03:09:04;;;;;;;4.32;1.10;;;19.60;99.90;;;;;;4224506;28;20158;-85
2022/07/31 03:11:07;;;;;;;5.03;1.58;;;19.60;99.90;;;;;;4226648;28;20208;-85
2022/07/31 03:13:10;;;;;;;2.22;1.10;;;19.50;99.90;;;;;;4222427;28;20178;-85
2022/07/31 03:15:17;;;;;;;1.73;1.23;;;19.40;99.90;;;;;;4225126;28;20739;-85
2022/07/31 03:17:19;;;;;;;2.78;1.30;;;19.40;99.90;;;;;;4225084;28;20237;-85
2022/07/31 03:19:21;;;;;;;4.53;1.30;;;19.30;99.90;;;;;;4227647;28;20173;-85
2022/07/31 03:21:24;;;;;;;4.45;1.67;;;19.50;99.90;;;;;;4222684;28;20166;-85
2022/07/31 03:23:27;;;;;;;4.35;1.50;;;19.40;99.90;;;;;;4208982;28;20209;-85
2022/07/31 03:25:41;;;;;;;3.70;1.48;;;19.40;99.90;;;;;;4208575;28;20181;-85
2022/07/31 03:27:41;;;;;;;4.47;1.40;;;19.30;99.90;;;;;;4225866;28;20186;-86
2022/07/31 03:29:42;;;;;;;2.60;1.27;;;19.30;99.90;;;;;;4224894;28;20215;-86
2022/07/31 03:31:43;;;;;;;2.67;1.42;;;19.10;99.90;;;;;;4206803;28;20535;-85
2022/07/31 03:33:44;;;;;;;3.22;1.50;;;19.10;99.90;;;;;;4227872;28;20157;-85
2022/07/31 03:35:44;;;;;;;3.25;1.42;;;19.10;99.90;;;;;;4227729;28;20190;-89
2022/07/31 03:37:45;;;;;;;4.18;1.33;;;19.10;99.90;;;;;;4228496;28;20302;-85
2022/07/31 03:39:46;;;;;;;6.32;1.40;;;19.20;99.90;;;;;;4210719;28;20194;-84
2022/07/31 03:42:01;;;;;;;6.22;1.63;;;19.40;99.90;;;;;;4210856;28;20198;-85
2022/07/31 03:44:01;;;;;;;3.08;1.30;;;19.30;99.90;;;;;;4229564;28;20172;-85
2022/07/31 03:46:04;;;;;;;4.07;1.50;;;19.40;99.90;;;;;;4230444;28;20158;-85
2022/07/31 03:48:21;;;;;;;2.75;1.35;;;19.30;99.90;;;;;;4228542;28;20264;-84
2022/07/31 03:50:42;;;;;;;5.65;1.52;;;19.40;99.90;;;;;;4228197;28;20173;-85
2022/07/31 03:52:45;;;;;;;2.83;1.20;;;19.40;99.90;;;;;;4229787;28;20194;-85
2022/07/31 03:54:46;;;;;;;3.33;1.55;;;19.40;99.90;;;;;;4214941;28;20167;-84
2022/07/31 03:56:51;;;;;;;3.10;1.45;;;19.30;99.90;;;;;;4207614;28;20159;-84
2022/07/31 03:58:53;;;;;;;3.22;1.38;;;19.30;99.90;;;;;;4231173;28;20187;-84
2022/07/31 04:00:55;;;;;;;4.22;1.98;;;19.40;99.90;;;;;;4229392;28;20174;-85
2022/07/31 04:03:03;;;;;;;6.13;1.42;;;19.30;99.90;;;;;;4229302;28;20185;-85
2022/07/31 04:05:14;;;;;;;3.75;1.60;;;19.30;99.90;;;;;;4227368;28;20264;-85
2022/07/31 04:07:15;;;;;;;2.75;1.58;;;19.20;99.90;;;;;;4229412;28;20154;-85
2022/07/31 04:09:18;;;;;;;3.55;1.50;;;19.20;99.90;;;;;;4208562;28;20709;-95
2022/07/31 04:11:20;;;;;;;3.97;1.70;;;19.10;99.90;;;;;;4230527;28;20265;-85
2022/07/31 04:13:21;;;;;;;4.88;1.60;;;19.20;99.90;;;;;;4212647;28;20187;-85
2022/07/31 04:15:21;;;;;;;4.90;1.60;;;19.20;99.90;;;;;;4211727;28;20189;-85
2022/07/31 04:17:22;;;;;;;2.65;1.65;;;19.20;99.90;;;;;;4209327;28;20257;-85
2022/07/31 04:19:23;;;;;;;2.50;1.55;;;19.20;99.90;;;;;;4230863;28;20150;-86
2022/07/31 04:21:24;;;;;;;4.20;1.63;;;19.20;99.90;;;;;;4214537;28;20185;-86
2022/07/31 04:23:25;;;;;;;4.65;1.85;;;19.30;99.90;;;;;;4228518;28;20184;-86
2022/07/31 04:25:58;;;;;;;2.95;1.70;;;19.20;99.90;;;;;;4194502;28;20174;-86
2022/07/31 04:28:19;;;;;;;3.20;1.63;;;19.20;99.90;;;;;;4228511;28;20186;-85
2022/07/31 04:30:20;;;;;;;4.22;1.50;;;19.10;99.90;;;;;;4230038;28;20166;-85
2022/07/31 04:32:22;;;;;;;5.03;1.70;;;19.10;99.90;;;;;;4226800;28;20194;-85
2022/07/31 04:34:26;;;;;;;5.00;2.03;;;19.20;99.90;;;;;;4228296;28;20170;-84
2022/07/31 04:36:42;;;;;;;2.80;1.67;;;19.00;99.90;;;;;;4226610;28;20184;-85
2022/07/31 04:38:43;;;;;;;3.75;1.63;;;19.00;99.90;;;;;;4208702;28;20162;-86
2022/07/31 04:40:44;;;;;;;4.38;1.75;;;19.10;99.90;;;;;;4212817;28;20179;-85
2022/07/31 04:42:45;;;;;;;3.63;1.67;;;19.20;99.90;;;;;;4228896;28;20186;-88
2022/07/31 04:44:46;;;;;;;7.57;1.98;;;19.30;99.90;;;;;;4226120;28;20162;-85
2022/07/31 04:46:47;;;;;;;3.95;2.05;;;19.30;99.90;;;;;;4207785;28;20262;-85
2022/07/31 04:48:48;;;;;;;6.88;1.90;;;19.30;99.90;;;;;;4210658;28;20238;-85
2022/07/31 04:50:49;;;;;;;5.20;2.10;;;19.20;99.90;;;;;;4211520;28;20182;-85
2022/07/31 04:52:50;;;;;;;4.90;2.20;;;19.20;99.90;;;;;;4208769;28;20241;-85
2022/07/31 04:54:50;;;;;;;4.38;1.80;;;19.30;99.90;;;;;;4227046;28;20177;-88
2022/07/31 04:56:51;;;;;;;4.30;1.85;;;19.30;99.90;;;;;;4228716;28;20214;-85
2022/07/31 04:58:52;;;;;;;3.83;2.22;;;19.40;99.90;;;;;;4224182;28;20187;-86
2022/07/31 05:00:53;;;;;;;5.13;2.03;;;19.40;99.90;;;;;;4229516;28;20166;-85
2022/07/31 05:02:53;;;;;;;2.20;1.75;;;19.50;99.90;;;;;;4212469;28;20278;-85
2022/07/31 05:04:56;;;;;;;3.80;2.40;;;19.50;99.90;;;;;;4229681;28;20177;-86
2022/07/31 05:06:58;;;;;;;3.95;2.03;;;19.60;99.90;;;;;;4226960;28;20176;-85
2022/07/31 05:09:00;;;;;;;6.07;2.28;;;19.60;99.90;;;;;;4228600;28;20182;-90
2022/07/31 05:11:23;;;;;;;6.00;2.35;;;19.60;99.90;;;;;;4228892;28;20256;-86
2022/07/31 05:13:24;;;;;;;4.75;2.28;;;19.60;99.90;;;;;;4225528;28;20236;-86
2022/07/31 05:15:25;;;;;;;5.70;2.55;;;19.60;99.90;;;;;;4221690;28;20166;-85
2022/07/31 05:17:26;;;;;;;4.55;2.45;;;19.50;99.90;;;;;;4208485;28;20291;-85
2022/07/31 05:19:56;;;;;;;6.70;2.40;;;19.50;99.90;;;;;;4224338;28;20522;-85
2022/07/31 05:22:15;;;;;;;7.45;2.95;;;19.70;99.90;;;;;;4229727;28;20305;-85
2022/07/31 05:24:34;;;;;;;5.28;2.53;;;19.80;99.90;;;;;;4226192;28;20319;-85
2022/07/31 05:26:43;;;;;;;4.15;2.55;;;19.70;99.90;;;;;;4226544;28;20178;-86
2022/07/31 05:29:01;;;;;;;4.38;2.65;;;19.70;99.90;;;;;;4207618;28;20186;-85
2022/07/31 05:31:02;;;;;;;6.57;3.00;;;19.70;99.90;;;;;;4210988;28;20155;-86
2022/07/31 05:33:05;;;;;;;5.13;2.70;;;19.60;99.90;;;;;;4227268;28;20186;-86
2022/07/31 05:35:22;;;;;;;7.68;2.90;;;19.60;99.90;;;;;;4224609;28;20166;-86
2022/07/31 05:37:23;;;;;;;6.75;3.53;;;19.60;99.90;;;;;;4208897;28;20213;-86
2022/07/31 05:39:24;;;;;;;4.57;2.83;;;19.60;99.90;;;;;;4206533;28;20163;-85
2022/07/31 05:41:43;;;;;;;7.75;3.67;;;19.60;99.90;;;;;;4224895;28;20670;-95
2022/07/31 05:44:16;;;;;;;6.60;3.35;;;19.70;99.90;;;;;;4179580;28;20182;-86
2022/07/31 05:46:20;;;;;;;5.40;3.28;;;19.90;99.90;;;;;;4225095;28;20173;-86
2022/07/31 05:48:21;;;;;;;6.07;3.50;;;20.10;99.90;;;;;;4224837;28;20155;-85
2022/07/31 05:50:22;;;;;;;7.22;3.67;;;20.10;99.90;;;;;;4207428;28;20202;-85
2022/07/31 05:52:22;;;;;;;5.68;3.63;;;20.10;99.90;;;;;;4227535;28;20190;-93
2022/07/31 05:54:44;;;;;;;6.35;3.45;;;20.40;99.90;;;;;;4225237;28;20189;-88
2022/07/31 05:57:23;;;;;;;7.13;3.53;;;20.40;99.90;;;;;;4186471;28;20192;-85
2022/07/31 05:59:24;;;;;;;7.68;3.30;;;20.60;99.90;;;;;;4175588;28;20187;-85
2022/07/31 06:01:24;;;;;;;7.07;3.65;;;20.70;99.90;;;;;;4175142;28;20164;-85
2022/07/31 06:03:28;;;;;;;13.95;3.58;;;20.70;99.90;;;;;;4203633;28;20195;-85
2022/07/31 06:05:42;;;;;;;7.70;3.70;;;20.60;99.90;;;;;;4228069;28;20186;-85
2022/07/31 06:07:51;;;;;;;7.32;3.60;;;20.70;99.90;;;;;;4221215;28;20630;-85
2022/07/31 06:09:51;;;;;;;9.18;3.67;;;20.60;99.90;;;;;;4206065;28;20174;-92
2022/07/31 06:11:52;;;;;;;7.78;3.95;;;20.60;99.90;;;;;;4206223;28;20182;-92
2022/07/31 06:13:53;;;;;;;7.45;3.40;;;20.90;99.90;;;;;;4208768;28;20685;-86
2022/07/31 06:16:11;;;;;;;8.50;4.05;;;21.10;99.90;;;;;;4228373;28;20182;-86
2022/07/31 06:18:13;;;;;;;12.27;4.05;;;21.30;99.90;;;;;;4223852;28;20267;-86
2022/07/31 06:20:14;;;;;;;8.02;3.78;;;21.50;99.90;;;;;;4225711;28;20150;-86
2022/07/31 06:22:15;;;;;;;5.22;3.42;;;21.40;99.90;;;;;;4206451;28;20183;-86
2022/07/31 06:24:15;;;;;;;7.50;3.67;;;21.50;99.90;;;;;;4205104;28;20171;-94
2022/07/31 06:26:18;;;;;;;9.57;3.60;;;21.50;99.90;;;;;;4226043;28;20162;-85
2022/07/31 06:28:18;;;;;;;10.10;4.10;;;21.60;99.90;;;;;;4206093;28;20246;-86
2022/07/31 06:30:19;;;;;;;7.47;3.58;;;21.60;99.90;;;;;;4224536;28;20169;-87
2022/07/31 06:32:24;;;;;;;13.20;3.63;;;21.40;99.90;;;;;;4204525;28;20193;-86
2022/07/31 06:34:26;;;;;;;12.07;3.60;;;21.50;99.90;;;;;;4205822;28;20218;-85
2022/07/31 06:36:27;;;;;;;8.35;4.35;;;21.30;99.90;;;;;;4221529;28;20177;-94
2022/07/31 06:38:31;;;;;;;8.73;4.30;;;21.40;99.90;;;;;;4204625;28;20579;-85
2022/07/31 06:41:01;;;;;;;8.80;3.88;;;21.60;99.90;;;;;;4207928;28;20174;-86
2022/07/31 06:43:22;;;;;;;7.95;3.78;;;21.70;99.90;;;;;;4224094;28;20201;-84
2022/07/31 06:45:45;;;;;;;10.45;4.28;;;21.70;99.90;;;;;;4197185;28;20187;-85
2022/07/31 06:48:05;;;;;;;7.85;3.92;;;21.80;99.90;;;;;;4221461;28;20161;-87
2022/07/31 06:50:14;;;;;;;7.03;3.58;;;21.70;99.90;;;;;;4223919;28;20234;-86
2022/07/31 06:52:25;;;;;;;8.13;4.03;;;21.70;99.90;;;;;;4209382;28;20250;-93
2022/07/31 06:54:29;;;;;;;8.05;4.28;;;21.60;99.90;;;;;;4222384;28;20465;-86
2022/07/31 06:56:31;;;;;;;9.63;4.10;;;21.70;99.90;;;;;;4206558;28;20182;-87
2022/07/31 06:58:32;;;;;;;9.75;4.03;;;21.70;99.90;;;;;;4203315;28;20219;-86
2022/07/31 07:00:33;;;;;;;6.50;3.67;;;21.70;99.90;;;;;;4204470;28;20161;-85
2022/07/31 07:02:34;;;;;;;11.52;4.40;;;21.70;99.90;;;;;;4205310;28;20273;-85
2022/07/31 07:04:35;;;;;;;8.40;3.88;;;21.60;99.90;;;;;;4224156;28;20181;-93
2022/07/31 07:06:36;;;;;;;8.48;3.95;;;21.50;99.90;;;;;;4205947;28;20204;-89
2022/07/31 07:08:36;;;;;;;5.68;3.40;;;21.30;99.90;;;;;;4206924;28;20173;-87
2022/07/31 07:10:38;;;;;;;6.95;3.53;;;21.30;99.90;;;;;;4221411;28;20170;-90
2022/07/31 07:12:58;;;;;;;7.88;3.63;;;21.50;99.90;;;;;;4219859;28;20185;-87
2022/07/31 07:15:01;;;;;;;6.88;3.60;;;21.60;99.90;;;;;;4205761;28;20194;-85
2022/07/31 07:17:04;;;;;;;8.93;3.42;;;21.50;99.90;;;;;;4223494;28;20202;-86
2022/07/31 07:19:04;;;;;;;5.88;3.15;;;21.70;99.90;;;;;;4206618;28;20269;-85
2022/07/31 07:21:05;;;;;;;7.47;3.05;;;22.50;99.90;;;;;;4220887;28;20170;-86
2022/07/31 07:23:06;;;;;;;5.15;2.60;;;22.70;99.90;;;;;;4206018;28;20205;-86
2022/07/31 07:25:19;;;;;;;12.85;4.30;;;23.80;99.90;;;;;;4225762;28;20174;-96
2022/07/31 07:27:23;;;;;;;7.93;3.60;;;25.50;99.90;;;;;;4221827;28;20150;-86
2022/07/31 07:29:24;;;;;;;9.25;3.17;;;26.70;99.90;;;;;;4224954;28;20184;-86
2022/07/31 07:31:44;;;;;;;9.07;3.05;;;27.70;99.90;;;;;;4223601;28;20178;-86
2022/07/31 07:33:47;;;;;;;7.03;2.80;;;28.80;99.90;;;;;;4222697;28;20158;-86
2022/07/31 07:35:52;;;;;;;8.20;2.78;;;29.80;99.90;;;;;;4226727;28;20232;-86
2022/07/31 07:37:53;;;;;;;6.40;2.40;;;30.20;99.90;;;;;;4208861;28;20214;-90
2022/07/31 07:39:55;;;;;;;4.80;2.42;;;30.30;99.90;;;;;;4227647;28;20151;-86
2022/07/31 07:41:56;;;;;;;4.90;2.50;;;30.90;99.90;;;;;;4240493;28;20292;-85
2022/07/31 07:43:56;;;;;;;5.80;2.35;;;31.30;99.90;;;;;;4205939;28;20162;-85
2022/07/31 07:46:00;;;;;;;7.82;2.80;;;31.10;99.90;;;;;;4207831;28;20200;-86
2022/07/31 07:48:01;;;;;;;5.05;2.63;;;31.80;99.90;;;;;;4221845;28;20186;-94
2022/07/31 07:50:07;;;;;;;4.25;2.67;;;32.40;99.90;;;;;;4204477;28;20178;-87
2022/07/31 07:52:31;;;;;;;6.07;2.35;;;31.40;99.90;;;;;;4224373;28;20202;-85
2022/07/31 07:54:47;;;;;;;3.85;2.40;;;31.40;99.90;;;;;;4222280;28;20174;-90
2022/07/31 07:57:00;;;;;;;6.07;2.20;;;30.60;99.90;;;;;;4226137;28;20216;-86
2022/07/31 07:59:19;;;;;;;4.80;2.15;;;30.10;99.90;;;;;;4222865;28;20235;-95
2022/07/31 08:01:55;;;;;;;4.05;2.63;;;28.90;99.90;;;;;;4154938;28;20176;-86
2022/07/31 08:04:00;;;;;;;6.32;2.50;;;28.60;99.90;;;;;;4182371;28;20187;-86
2022/07/31 08:06:01;;;;;;;5.95;2.60;;;29.00;99.90;;;;;;4222717;28;20178;-96
2022/07/31 08:08:03;;;;;;;5.10;2.33;;;29.60;99.90;;;;;;4206612;28;20708;-86
2022/07/31 08:10:25;;;;;;;3.85;2.08;;;29.70;99.90;;;;;;4226429;28;20174;-86
2022/07/31 08:12:35;;;;;;;3.75;2.22;;;29.70;99.90;;;;;;4222194;28;20238;-85
2022/07/31 08:14:39;;;;;;;4.80;2.58;;;29.60;99.90;;;;;;4222285;28;20169;-91
2022/07/31 08:17:03;;;;;;;2.85;2.22;;;29.20;99.90;;;;;;4197738;28;20308;-88
2022/07/31 08:19:03;;;;;;;5.28;2.83;;;28.90;99.90;;;;;;4224009;28;20158;-86
2022/07/31 08:21:12;;;;;;;6.40;2.63;;;29.00;99.90;;;;;;4227595;28;20158;-86
2022/07/31 08:23:12;;;;;;;6.15;2.78;;;29.60;99.90;;;;;;4225178;28;20182;-85
2022/07/31 08:25:13;;;;;;;5.40;2.53;;;29.80;99.90;;;;;;4228557;28;20166;-86
2022/07/31 08:27:23;;;;;;;6.25;3.03;;;30.20;99.90;;;;;;4208218;28;20178;-87
2022/07/31 08:29:23;;;;;;;4.72;2.22;;;30.80;99.90;;;;;;4226052;28;20538;-86
2022/07/31 08:31:30;;;;;;;4.50;2.47;;;31.60;99.90;;;;;;4228558;28;20261;-86
2022/07/31 08:33:59;;;;;;;5.80;2.35;;;32.20;99.90;;;;;;4234603;22;20200;-87
2022/07/31 08:36:00;;;;;;;4.63;2.50;;;33.00;99.90;;;;;;4228913;28;20159;-95
2022/07/31 08:38:01;;;;;;;3.65;2.47;;;33.40;99.90;;;;;;4207427;28;20636;-86
2022/07/31 08:40:02;;;;;;;5.93;2.42;;;33.90;99.90;;;;;;4210052;28;20170;-86
2022/07/31 08:42:06;;;;;;;3.08;2.40;;;33.00;99.90;;;;;;4220037;28;20648;-87
2022/07/31 08:44:08;;;;;;;3.22;2.20;;;32.30;99.90;;;;;;4210224;28;20216;-96
2022/07/31 08:46:16;;;;;;;4.68;2.50;;;32.70;99.90;;;;;;4205264;28;20174;-86
2022/07/31 08:48:22;;;;;;;6.15;2.75;;;32.40;99.90;;;;;;4192851;28;20174;-94
2022/07/31 08:50:25;;;;;;;5.03;2.80;;;31.50;99.90;;;;;;4188934;28;20205;-86
2022/07/31 08:52:27;;;;;;;3.03;2.47;;;31.00;99.90;;;;;;4188320;28;20552;-85
2022/07/31 08:54:34;;;;;;;4.00;2.50;;;30.70;99.90;;;;;;4208626;28;20179;-85
2022/07/31 08:56:42;;;;;;;4.93;2.60;;;30.40;99.90;;;;;;4205688;28;20173;-86
2022/07/31 08:58:47;;;;;;;5.80;2.50;;;30.30;99.90;;;;;;4205988;28;20250;-85
2022/07/31 09:00:48;;;;;;;5.32;2.60;;;29.00;99.90;;;;;;4206043;28;20174;-86
2022/07/31 09:02:51;;;;;;;8.63;2.85;;;29.00;99.90;;;;;;4210033;28;20222;-94
2022/07/31 09:05:07;;;;;;;6.25;2.53;;;29.40;99.90;;;;;;4226114;28;20323;-85
2022/07/31 09:07:13;;;;;;;3.90;2.58;;;29.30;99.90;;;;;;4191321;28;20245;-87
2022/07/31 09:09:21;;;;;;;5.60;2.70;;;29.60;99.90;;;;;;4211514;28;20193;-86
2022/07/31 09:11:23;;;;;;;5.45;2.78;;;29.70;99.90;;;;;;4190708;28;20176;-93
2022/07/31 09:14:03;;;;;;;3.67;2.30;;;30.10;99.90;;;;;;4210192;28;20186;-85
2022/07/31 09:16:22;;;;;;;7.82;2.70;;;31.10;99.90;;;;;;4208793;28;20202;-86
2022/07/31 09:18:24;;;;;;;9.80;2.90;;;31.90;99.90;;;;;;4206166;28;20206;-96
2022/07/31 09:21:02;;;;;;;3.90;2.53;;;32.10;99.90;;;;;;4209052;28;20174;-92
2022/07/31 09:23:08;;;;;;;5.05;2.67;;;32.30;99.90;;;;;;4205663;28;20190;-86
2022/07/31 09:25:29;;;;;;;7.15;2.83;;;32.60;99.90;;;;;;4205623;28;20182;-88
2022/07/31 09:27:29;;;;;;;9.82;4.97;;;32.00;99.90;;;;;;4207657;28;20171;-95
2022/07/31 09:29:37;;;;;;;6.40;3.00;;;31.10;99.90;;;;;;4206331;28;20167;-94
2022/07/31 09:31:45;;;;;;;5.03;3.00;;;30.50;99.90;;;;;;4206575;28;20584;-85
2022/07/31 09:33:58;;;;;;;5.10;2.60;;;29.70;99.90;;;;;;4206554;28;20186;-91
2022/07/31 09:36:14;;;;;;;5.43;2.80;;;29.40;99.90;;;;;;4210918;28;20182;-86
2022/07/31 09:38:19;;;;;;;6.93;2.65;;;29.10;99.90;;;;;;4188676;28;20688;-86
2022/07/31 09:40:46;;;;;;;4.93;2.50;;;29.30;99.90;;;;;;4205496;28;20171;-96
2022/07/31 09:43:18;;;;;;;4.15;2.10;;;29.40;99.90;;;;;;4207367;28;20206;-94
2022/07/31 09:45:23;;;;;;;8.20;2.97;;;29.30;99.90;;;;;;4204709;28;20163;-96
2022/07/31 09:47:27;;;;;;;5.07;2.65;;;29.70;99.90;;;;;;4192987;28;20167;-86
2022/07/31 09:49:33;;;;;;;3.92;2.25;;;30.30;99.90;;;;;;4205971;28;20171;-87
2022/07/31 09:51:39;;;;;;;10.85;2.60;;;30.20;99.90;;;;;;4188133;28;20175;-85
2022/07/31 09:53:46;;;;;;;6.03;2.58;;;29.90;99.90;;;;;;4208783;28;20174;-95
2022/07/31 09:56:14;;;;;;;5.78;2.38;;;29.30;99.90;;;;;;4183441;28;20183;-86
2022/07/31 09:58:15;;;;;;;6.85;2.80;;;28.20;99.90;;;;;;4189853;28;20245;-85
2022/07/31 10:00:16;;;;;;;4.88;2.63;;;27.80;99.90;;;;;;4191847;28;20180;-85
2022/07/31 10:02:19;;;;;;;11.50;2.70;;;27.80;99.90;;;;;;4188780;28;20188;-94
2022/07/31 10:04:22;;;;;;;4.00;2.50;;;27.80;99.90;;;;;;4208735;28;20171;-95
2022/07/31 10:06:25;;;;;;;5.78;2.50;;;27.50;99.90;;;;;;4190242;28;20159;-85
2022/07/31 10:08:27;;;;;;;4.78;2.53;;;27.30;99.90;;;;;;4204128;28;20170;-89
2022/07/31 10:10:49;;;;;;;3.42;2.55;;;27.30;99.90;;;;;;4205993;28;20218;-84
2022/07/31 10:13:19;;;;;;;6.35;2.20;;;27.20;99.90;;;;;;4207454;28;20285;-89
2022/07/31 10:15:20;;;;;;;4.47;2.30;;;26.90;99.90;;;;;;4207401;28;20173;-95
2022/07/31 10:17:45;;;;;;;3.92;2.20;;;26.70;99.90;;;;;;4206076;28;20233;-86
2022/07/31 10:20:07;;;;;;;6.43;2.35;;;26.40;99.90;;;;;;4204808;28;20182;-85
2022/07/31 10:23:14;;;;;;;7.22;2.10;;;26.50;99.90;;;;;;4176536;28;20202;-96
2022/07/31 10:25:20;;;;;;;5.75;2.08;;;26.60;99.90;;;;;;4204191;28;20158;-86
2022/07/31 10:27:22;;;;;;;9.45;2.70;;;26.70;99.90;;;;;;4192759;28;20167;-85
2022/07/31 10:29:43;;;;;;;4.88;2.33;;;26.90;99.90;;;;;;4208307;28;20218;-86
2022/07/31 10:31:45;;;;;;;4.18;2.65;;;26.70;99.90;;;;;;4204562;28;20203;-94
2022/07/31 10:33:46;;;;;;;5.90;2.95;;;27.30;99.90;;;;;;4205088;28;20230;-96
2022/07/31 10:36:21;;;;;;;4.68;2.22;;;27.70;99.90;;;;;;4204620;28;20186;-86
2022/07/31 10:38:53;;;;;;;7.80;2.50;;;28.20;99.90;;;;;;4203649;28;20206;-94
2022/07/31 10:41:49;;;;;;;4.50;2.00;;;28.50;99.90;;;;;;4149893;28;20268;-86
2022/07/31 10:44:35;;;;;;;6.07;1.58;;;28.20;99.90;;;;;;4190294;28;20246;-85
2022/07/31 10:47:20;;;;;;;3.67;1.70;;;28.20;99.90;;;;;;4153448;28;20189;-88
2022/07/31 10:49:45;;;;;;;4.93;1.75;;;28.20;99.90;;;;;;4192487;28;20198;-95
2022/07/31 10:52:05;;;;;;;4.55;1.80;;;28.30;99.90;;;;;;4209399;28;20230;-85
2022/07/31 10:54:37;;;;;;;3.28;1.40;;;28.00;99.90;;;;;;4195679;28;20181;-94
2022/07/31 10:56:58;;;;;;;3.10;1.35;;;27.70;99.90;;;;;;4204650;28;20183;-95
2022/07/31 10:59:30;;;;;;;3.15;1.40;;;27.50;99.90;;;;;;4207699;28;20183;-91
2022/07/31 11:01:53;;;;;;;2.25;1.13;;;27.40;99.90;;;;;;4204924;28;20162;-95
2022/07/31 11:04:31;;;;;;;2.95;1.30;;;27.30;99.90;;;;;;4205023;28;20578;-94